createdAt,value
2018-03-24T00:01:59.342Z,65.63
2018-03-24T00:04:27.625Z,67.17
2018-03-24T00:06:55.886Z,69.37
2018-03-24T00:09:24.174Z,64.77
2018-03-24T00:11:52.437Z,62.27
2018-03-24T00:14:20.707Z,55.40
2018-03-24T00:16:48.232Z,64.67
2018-03-24T00:19:15.731Z,67.57
2018-03-24T00:21:44.018Z,63.30
2018-03-24T00:24:12.286Z,65.07
2018-03-24T00:26:40.579Z,65.90
2018-03-24T00:29:08.081Z,64.10
2018-03-24T00:31:35.602Z,63.50
2018-03-24T00:34:03.102Z,62.63
2018-03-24T00:36:30.597Z,62.30
2018-03-24T00:38:58.879Z,61.90
2018-03-24T00:41:27.204Z,65.40
2018-03-24T00:43:54.694Z,61.33
2018-03-24T00:46:22.190Z,59.87
2018-03-24T00:48:49.718Z,62.20
2018-03-24T00:51:17.990Z,54.93
2018-03-24T00:53:46.282Z,58.53
2018-03-24T00:56:14.550Z,58.47
2018-03-24T00:58:42.814Z,59.83
2018-03-24T01:01:10.332Z,59.00
2018-03-24T01:03:37.834Z,60.97
2018-03-24T01:06:05.357Z,54.33
2018-03-24T01:08:32.859Z,61.03
2018-03-24T01:11:01.142Z,61.33
2018-03-24T01:13:29.406Z,61.53
2018-03-24T01:15:56.926Z,58.67
2018-03-24T01:18:24.418Z,62.20
2018-03-24T01:20:51.966Z,57.17
2018-03-24T01:23:19.451Z,53.70
2018-03-24T01:25:47.721Z,59.50
2018-03-24T01:28:16.014Z,58.27
2018-03-24T01:30:44.283Z,60.97
2018-03-24T01:33:12.570Z,60.17
2018-03-24T01:35:40.061Z,61.23
2018-03-24T01:38:07.579Z,58.03
2018-03-24T01:40:35.844Z,60.27
2018-03-24T01:43:04.111Z,57.57
2018-03-24T01:45:31.634Z,60.80
2018-03-24T01:47:59.135Z,57.23
2018-03-24T01:50:27.435Z,62.73
2018-03-24T01:52:54.933Z,56.50
2018-03-24T01:55:22.454Z,56.90
2018-03-24T01:57:49.950Z,60.00
2018-03-24T02:00:17.471Z,57.67
2018-03-24T02:02:44.973Z,55.90
2018-03-24T02:05:12.474Z,56.37
2018-03-24T02:07:40.769Z,56.27
2018-03-24T02:10:08.484Z,59.97
2018-03-24T02:12:36.006Z,57.50
2018-03-24T02:15:03.506Z,59.57
2018-03-24T02:17:31.030Z,58.40
2018-03-24T02:19:58.555Z,57.97
2018-03-24T02:22:26.052Z,59.10
2018-03-24T02:24:53.575Z,57.07
2018-03-24T02:27:21.075Z,60.93
2018-03-24T02:29:48.598Z,59.83
2018-03-24T02:32:16.099Z,60.93
2018-03-24T02:34:43.615Z,55.90
2018-03-24T02:37:11.167Z,66.50
2018-03-24T02:39:38.665Z,63.40
2018-03-24T02:42:06.195Z,60.47
2018-03-24T02:44:33.699Z,59.77
2018-03-24T02:47:01.226Z,56.93
2018-03-24T02:49:28.732Z,56.57
2018-03-24T02:51:56.231Z,65.03
2018-03-24T02:54:23.757Z,57.47
2018-03-24T02:56:52.020Z,61.70
2018-03-24T02:59:19.556Z,62.50
2018-03-24T03:01:47.060Z,60.67
2018-03-24T03:04:15.354Z,64.97
2018-03-24T03:06:42.854Z,60.57
2018-03-24T03:09:10.374Z,64.97
2018-03-24T03:11:37.865Z,61.30
2018-03-24T03:14:05.369Z,64.70
2018-03-24T03:16:33.648Z,61.70
2018-03-24T03:19:01.904Z,63.23
2018-03-24T03:21:53.965Z,60.93
2018-03-24T03:24:21.458Z,63.20
2018-03-24T03:26:48.969Z,63.40
2018-03-24T03:29:17.230Z,69.63
2018-03-24T03:31:59.621Z,65.47
2018-03-24T03:34:27.110Z,61.30
2018-03-24T03:36:55.387Z,60.33
2018-03-24T03:39:23.645Z,64.40
2018-03-24T03:41:51.159Z,60.47
2018-03-24T03:44:18.649Z,63.23
2018-03-24T03:46:46.157Z,60.13
2018-03-24T03:49:13.647Z,66.77
2018-03-24T03:51:41.141Z,66.23
2018-03-24T03:54:08.653Z,68.97
2018-03-24T03:56:36.142Z,68.97
2018-03-24T03:59:03.654Z,69.13
2018-03-24T04:01:31.148Z,64.70
2018-03-24T04:03:58.661Z,62.40
2018-03-24T04:06:26.164Z,64.47
2018-03-24T04:08:53.653Z,63.50
2018-03-24T04:11:21.933Z,68.03
2018-03-24T04:13:50.189Z,69.50
2018-03-24T04:16:17.693Z,65.10
2018-03-24T04:18:45.181Z,65.30
2018-03-24T04:21:12.694Z,70.77
2018-03-24T04:23:40.953Z,64.90
2018-03-24T04:26:08.464Z,63.30
2018-03-24T04:28:35.960Z,69.40
2018-03-24T04:31:03.453Z,63.43
2018-03-24T04:33:30.965Z,63.20
2018-03-24T04:35:58.452Z,71.63
2018-03-24T04:38:26.737Z,71.80
2018-03-24T04:40:54.994Z,69.70
2018-03-24T04:43:22.505Z,73.83
2018-03-24T04:45:49.993Z,69.20
2018-03-24T04:48:17.503Z,73.50
2018-03-24T04:50:44.993Z,69.27
2018-03-24T04:53:12.485Z,68.97
2018-03-24T04:55:39.997Z,68.60
2018-03-24T04:58:07.489Z,71.90
2018-03-24T05:00:35.002Z,74.53
2018-03-24T05:03:02.493Z,80.20
2018-03-24T05:05:30.005Z,69.70
2018-03-24T05:07:57.488Z,77.43
2018-03-24T05:10:24.981Z,77.33
2018-03-24T05:12:52.497Z,75.53
2018-03-24T05:15:19.994Z,78.03
2018-03-24T05:17:49.018Z,79.47
2018-03-24T05:20:17.276Z,75.60
2018-03-24T05:22:44.781Z,68.53
2018-03-24T05:25:12.273Z,77.87
2018-03-24T05:27:39.765Z,70.20
2018-03-24T05:30:08.045Z,75.63
2018-03-24T05:32:36.313Z,66.23
2018-03-24T05:35:04.591Z,71.03
2018-03-24T05:37:32.840Z,66.60
2018-03-24T05:40:00.357Z,68.10
2018-03-24T05:42:27.846Z,65.70
2018-03-24T05:44:55.356Z,63.13
2018-03-24T05:47:23.611Z,66.53
2018-03-24T05:49:51.102Z,67.00
2018-03-24T05:52:18.612Z,63.50
2018-03-24T05:54:47.033Z,69.83
2018-03-24T05:57:14.544Z,66.63
2018-03-24T05:59:42.029Z,67.53
2018-03-24T06:02:10.305Z,66.97
2018-03-24T06:04:38.569Z,68.43
2018-03-24T06:07:06.080Z,66.87
2018-03-24T06:09:33.577Z,67.47
2018-03-24T06:12:01.069Z,67.87
2018-03-24T06:14:29.340Z,62.57
2018-03-24T06:16:57.611Z,62.60
2018-03-24T06:19:25.880Z,64.10
2018-03-24T06:21:54.139Z,70.20
2018-03-24T06:24:21.645Z,74.00
2018-03-24T06:26:49.141Z,61.47
2018-03-24T06:29:16.680Z,59.97
2018-03-24T06:31:45.152Z,59.37
2018-03-24T06:34:12.643Z,58.40
2018-03-24T06:36:42.840Z,61.13
2018-03-24T06:39:10.328Z,51.57
2018-03-24T06:41:37.836Z,60.07
2018-03-24T06:44:05.320Z,55.17
2018-03-24T06:46:32.844Z,53.87
2018-03-24T06:49:01.102Z,50.53
2018-03-24T06:51:29.376Z,50.60
2018-03-24T06:53:56.867Z,51.67
2018-03-24T06:56:24.358Z,53.77
2018-03-24T06:58:51.870Z,49.40
2018-03-24T07:01:20.125Z,74.43
2018-03-24T07:03:47.639Z,77.67
2018-03-24T07:06:15.129Z,51.17
2018-03-24T07:08:42.642Z,53.87
2018-03-24T07:11:10.134Z,55.40
2018-03-24T07:13:37.645Z,52.23
2018-03-24T07:16:05.128Z,52.43
2018-03-24T07:18:32.617Z,50.33
2018-03-24T07:21:00.133Z,53.50
2018-03-24T07:23:27.633Z,51.57
2018-03-24T07:25:55.156Z,54.83
2018-03-24T07:28:22.649Z,54.60
2018-03-24T07:30:50.153Z,46.47
2018-03-24T07:33:17.636Z,48.73
2018-03-24T07:35:45.149Z,47.80
2018-03-24T07:38:13.401Z,50.03
2018-03-24T07:40:40.889Z,53.37
2018-03-24T07:43:09.165Z,51.70
2018-03-24T07:45:37.424Z,47.97
2018-03-24T07:48:05.706Z,56.10
2018-03-24T07:50:33.960Z,46.17
2018-03-24T07:53:01.473Z,45.80
2018-03-24T07:55:28.970Z,48.73
2018-03-24T07:57:56.494Z,49.70
2018-03-24T08:00:23.985Z,48.07
2018-03-24T08:02:51.473Z,51.60
2018-03-24T08:05:19.752Z,45.30
2018-03-24T08:07:48.008Z,52.30
2018-03-24T08:10:15.518Z,46.90
2018-03-24T08:12:43.001Z,50.43
2018-03-24T08:15:10.515Z,50.43
2018-03-24T08:17:38.774Z,51.43
2018-03-24T08:20:07.053Z,52.97
2018-03-24T08:22:34.541Z,48.50
2018-03-24T08:25:02.029Z,46.93
2018-03-24T08:27:29.549Z,52.93
2018-03-24T08:29:57.040Z,48.30
2018-03-24T08:32:24.551Z,44.80
2018-03-24T08:34:52.809Z,48.83
2018-03-24T08:37:20.321Z,49.93
2018-03-24T08:39:47.814Z,47.77
2018-03-24T08:42:15.335Z,46.87
2018-03-24T08:44:42.860Z,40.27
2018-03-24T08:47:10.330Z,49.13
2018-03-24T08:49:38.601Z,49.60
2018-03-24T08:52:06.865Z,41.57
2018-03-24T08:54:35.141Z,39.90
2018-03-24T08:57:03.394Z,40.20
2018-03-24T08:59:30.900Z,42.13
2018-03-24T09:01:58.393Z,44.70
2018-03-24T09:04:25.888Z,40.50
2018-03-24T09:06:54.174Z,39.30
2018-03-24T09:09:22.449Z,38.30
2018-03-24T09:11:50.730Z,36.07
2018-03-24T09:14:18.989Z,41.07
2018-03-24T09:16:46.501Z,35.17
2018-03-24T09:19:13.988Z,31.70
2018-03-24T09:21:41.501Z,33.80
2018-03-24T09:24:08.985Z,41.30
2018-03-24T09:26:36.472Z,42.70
2018-03-24T09:29:03.985Z,38.77
2018-03-24T09:31:31.478Z,36.87
2018-03-24T09:33:58.984Z,34.60
2018-03-24T09:36:26.478Z,33.30
2018-03-24T09:38:54.009Z,33.10
2018-03-24T09:41:21.509Z,29.77
2018-03-24T09:43:49.000Z,33.23
2018-03-24T09:46:17.285Z,29.10
2018-03-24T09:48:45.544Z,24.80
2018-03-24T09:51:13.056Z,22.40
2018-03-24T09:53:40.552Z,24.30
2018-03-24T09:56:08.069Z,27.20
2018-03-24T09:58:35.566Z,27.07
2018-03-24T10:01:04.591Z,23.53
2018-03-24T10:03:32.872Z,26.60
2018-03-24T10:06:00.360Z,19.73
2018-03-24T10:08:27.868Z,21.60
2018-03-24T10:10:56.170Z,18.60
2018-03-24T10:13:23.653Z,22.37
2018-03-24T10:15:51.145Z,20.13
2018-03-24T10:18:18.657Z,18.63
2018-03-24T10:24:27.306Z,16.60
2018-03-24T10:26:54.808Z,15.67
2018-03-24T10:29:22.325Z,15.97
2018-03-24T10:31:49.819Z,17.10
2018-03-24T10:34:17.311Z,14.37
2018-03-24T10:36:45.586Z,16.03
2018-03-24T10:39:13.849Z,13.27
2018-03-24T10:41:42.129Z,12.90
2018-03-24T10:44:10.385Z,12.97
2018-03-24T10:46:37.900Z,11.27
2018-03-24T10:49:05.393Z,10.20
2018-03-24T10:51:32.895Z,10.77
2018-03-24T10:54:00.402Z,9.77
2018-03-24T10:56:27.884Z,9.90
2018-03-24T10:58:55.393Z,9.70
2018-03-24T11:01:25.392Z,9.50
2018-03-24T11:03:52.901Z,8.30
2018-03-24T11:06:20.389Z,10.10
2018-03-24T11:08:48.644Z,10.10
2018-03-24T11:11:16.210Z,10.53
2018-03-24T11:13:43.658Z,9.43
2018-03-24T11:16:11.161Z,9.93
2018-03-24T11:18:38.645Z,7.53
2018-03-24T11:21:06.148Z,9.30
2018-03-24T11:23:33.645Z,9.30
2018-03-24T11:26:01.137Z,9.90
2018-03-24T11:28:28.653Z,10.97
2018-03-24T11:30:56.142Z,10.90
2018-03-24T11:33:23.648Z,10.80
2018-03-24T11:35:51.901Z,12.50
2018-03-24T11:38:20.180Z,12.50
2018-03-24T11:40:47.673Z,12.03
2018-03-24T11:43:15.160Z,14.43
2018-03-24T11:45:42.683Z,13.40
2018-03-24T11:48:10.948Z,12.57
2018-03-24T11:50:39.237Z,12.67
2018-03-24T11:53:07.494Z,12.60
2018-03-24T11:55:35.008Z,13.47
2018-03-24T11:58:02.501Z,14.07
2018-03-24T12:00:29.997Z,13.17
2018-03-24T12:02:57.525Z,14.70
2018-03-24T12:05:25.012Z,15.17
2018-03-24T12:07:52.545Z,15.63
2018-03-24T12:10:20.040Z,16.10
2018-03-24T12:12:47.553Z,17.17
2018-03-24T12:15:15.040Z,15.60
2018-03-24T12:17:43.297Z,19.00
2018-03-24T12:20:11.576Z,17.60
2018-03-24T12:22:39.840Z,18.53
2018-03-24T12:25:08.116Z,19.73
2018-03-24T12:27:35.608Z,19.53
2018-03-24T12:30:03.121Z,19.80
2018-03-24T12:32:30.617Z,18.37
2018-03-24T12:34:58.897Z,19.33
2018-03-24T12:37:27.153Z,20.17
2018-03-24T12:39:54.737Z,19.97
2018-03-24T12:42:22.178Z,18.20
2018-03-24T12:44:50.439Z,17.07
2018-03-24T12:47:17.953Z,18.50
2018-03-24T12:49:45.444Z,16.80
2018-03-24T12:52:12.956Z,14.77
2018-03-24T12:54:40.451Z,17.53
2018-03-24T12:57:07.966Z,15.10
2018-03-24T12:59:35.462Z,16.90
2018-03-24T13:02:02.957Z,15.30
2018-03-24T13:04:31.237Z,17.63
2018-03-24T13:06:59.497Z,15.77
2018-03-24T13:09:27.013Z,15.77
2018-03-24T13:11:54.777Z,19.37
2018-03-24T13:14:22.284Z,15.13
2018-03-24T13:16:50.544Z,13.43
2018-03-24T13:19:18.037Z,17.17
2018-03-24T13:21:46.318Z,12.50
2018-03-24T13:24:13.820Z,14.10
2018-03-24T13:26:41.335Z,13.33
2018-03-24T13:29:08.832Z,12.93
2018-03-24T13:31:36.345Z,13.87
2018-03-24T13:34:04.608Z,13.57
2018-03-24T13:36:32.865Z,14.30
2018-03-24T13:39:01.148Z,12.93
2018-03-24T13:41:30.166Z,14.20
2018-03-24T13:43:58.447Z,15.90
2018-03-24T13:46:26.704Z,14.90
2018-03-24T13:48:54.216Z,14.50
2018-03-24T13:51:21.709Z,17.90
2018-03-24T13:53:49.969Z,14.97
2018-03-24T13:56:17.487Z,15.27
2018-03-24T13:58:44.985Z,13.43
2018-03-24T14:01:12.497Z,13.13
2018-03-24T14:03:39.995Z,14.17
2018-03-24T14:06:07.501Z,13.53
2018-03-24T14:08:35.780Z,13.80
2018-03-24T14:11:04.037Z,12.13
2018-03-24T14:13:31.556Z,14.40
2018-03-24T14:15:59.061Z,18.00
2018-03-24T14:18:27.321Z,15.10
2018-03-24T14:20:54.836Z,14.50
2018-03-24T14:23:22.329Z,14.00
2018-03-24T14:25:49.842Z,15.00
2018-03-24T14:28:17.337Z,12.80
2018-03-24T14:30:44.820Z,25.43
2018-03-24T14:33:13.097Z,14.60
2018-03-24T14:35:40.585Z,17.53
2018-03-24T14:38:08.097Z,16.43
2018-03-24T14:40:35.588Z,14.33
2018-03-24T14:43:03.847Z,16.00
2018-03-24T14:45:31.386Z,15.57
2018-03-24T14:47:58.874Z,15.10
2018-03-24T14:50:27.173Z,18.10
2018-03-24T14:52:54.669Z,16.60
2018-03-24T14:55:22.161Z,13.77
2018-03-24T14:57:49.673Z,15.30
2018-03-24T15:00:17.161Z,15.17
2018-03-24T15:02:44.674Z,17.00
2018-03-24T15:05:12.171Z,14.10
2018-03-24T15:07:39.661Z,15.07
2018-03-24T15:10:07.941Z,19.63
2018-03-24T15:12:36.197Z,14.40
2018-03-24T15:15:05.229Z,15.50
2018-03-24T15:17:32.753Z,17.47
2018-03-24T15:20:00.269Z,15.77
2018-03-24T15:22:27.757Z,14.87
2018-03-24T15:24:55.245Z,16.40
2018-03-24T15:27:23.520Z,17.50
2018-03-24T15:30:03.716Z,19.40
2018-03-24T15:32:43.201Z,15.90
2018-03-24T15:35:22.597Z,14.70
2018-03-24T15:37:50.094Z,15.60
2018-03-24T15:40:18.353Z,15.33
2018-03-24T15:42:45.870Z,15.33
2018-03-24T15:45:13.366Z,14.93
2018-03-24T15:47:40.889Z,18.00
2018-03-24T15:50:08.392Z,15.60
2018-03-24T15:52:35.909Z,14.37
2018-03-24T15:55:03.405Z,13.80
2018-03-24T15:57:30.920Z,14.53
2018-03-24T15:59:58.413Z,14.33
2018-03-24T16:02:25.914Z,15.07
2018-03-24T16:04:54.197Z,17.60
2018-03-24T16:07:22.454Z,13.47
2018-03-24T16:09:49.972Z,13.70
2018-03-24T16:12:17.464Z,15.20
2018-03-24T16:14:45.749Z,18.43
2018-03-24T16:17:14.004Z,16.73
2018-03-24T16:19:41.520Z,14.77
2018-03-24T16:22:09.012Z,16.70
2018-03-24T16:24:36.501Z,16.40
2018-03-24T16:27:04.781Z,16.93
2018-03-24T16:29:33.045Z,21.97
2018-03-24T16:32:00.563Z,14.27
2018-03-24T16:34:28.053Z,14.33
2018-03-24T16:36:55.568Z,14.97
2018-03-24T16:39:23.061Z,15.93
2018-03-24T16:41:50.587Z,15.30
2018-03-24T16:44:18.084Z,15.37
2018-03-24T16:46:45.577Z,14.30
2018-03-24T16:49:13.853Z,15.80
2018-03-24T16:51:42.115Z,14.20
2018-03-24T16:54:10.397Z,15.27
2018-03-24T16:56:38.652Z,16.83
2018-03-24T16:59:06.165Z,14.83
2018-03-24T17:01:33.658Z,16.63
2018-03-24T17:04:01.176Z,15.10
2018-03-24T17:06:28.672Z,16.23
2018-03-24T17:08:56.157Z,18.60
2018-03-24T17:11:23.665Z,15.70
2018-03-24T17:13:51.211Z,16.87
2018-03-24T17:16:18.740Z,15.00
2018-03-24T17:18:47.051Z,14.63
2018-03-24T17:21:15.293Z,14.63
2018-03-24T17:23:43.549Z,17.20
2018-03-24T17:26:11.042Z,14.07
2018-03-24T17:28:38.557Z,21.50
2018-03-24T17:31:06.049Z,17.17
2018-03-24T17:33:34.327Z,14.60
2018-03-24T17:36:02.593Z,20.60
2018-03-24T17:38:30.876Z,18.40
2018-03-24T17:40:59.140Z,19.17
2018-03-24T17:43:26.633Z,20.30
2018-03-24T17:45:54.149Z,23.10
2018-03-24T17:48:22.408Z,22.10
2018-03-24T17:50:49.921Z,26.97
2018-03-24T17:53:17.413Z,19.67
2018-03-24T17:55:44.991Z,19.27
2018-03-24T17:58:12.437Z,19.90
2018-03-24T18:00:39.930Z,24.00
2018-03-24T18:03:08.248Z,25.23
2018-03-24T18:05:35.742Z,18.37
2018-03-24T18:08:03.257Z,18.50
2018-03-24T18:10:30.750Z,20.37
2018-03-24T18:12:58.265Z,29.47
2018-03-24T18:15:25.760Z,28.47
2018-03-24T18:17:53.274Z,29.63
2018-03-24T18:20:20.774Z,25.13
2018-03-24T18:22:48.261Z,22.40
2018-03-24T18:25:16.549Z,22.77
2018-03-24T18:27:44.805Z,28.73
2018-03-24T18:30:12.320Z,25.17
2018-03-24T18:32:39.835Z,23.43
2018-03-24T18:35:07.344Z,25.30
2018-03-24T18:37:34.853Z,23.20
2018-03-24T18:40:03.114Z,23.67
2018-03-24T18:42:30.626Z,26.93
2018-03-24T18:44:58.116Z,23.30
2018-03-24T18:47:25.805Z,22.87
2018-03-24T18:49:53.306Z,23.87
2018-03-24T18:52:20.813Z,84.03
2018-03-24T18:54:48.336Z,30.17
2018-03-24T18:57:15.844Z,29.63
2018-03-24T18:59:43.337Z,28.33
2018-03-24T19:02:10.829Z,21.17
2018-03-24T19:04:38.338Z,22.23
2018-03-24T19:07:06.593Z,21.03
2018-03-24T19:09:34.880Z,21.33
2018-03-24T19:12:03.145Z,30.33
2018-03-24T19:14:30.684Z,23.87
2018-03-24T19:16:58.178Z,23.90
2018-03-24T19:19:26.456Z,25.23
2018-03-24T19:21:54.725Z,20.67
2018-03-24T19:24:22.982Z,23.87
2018-03-24T19:26:52.001Z,25.13
2018-03-24T19:29:20.256Z,23.90
2018-03-24T19:31:47.765Z,21.40
2018-03-24T19:34:15.253Z,21.30
2018-03-24T19:36:42.771Z,23.70
2018-03-24T19:39:10.257Z,24.93
2018-03-24T19:41:37.793Z,24.83
2018-03-24T19:44:05.281Z,23.87
2018-03-24T19:46:32.765Z,24.17
2018-03-24T19:49:00.275Z,23.40
2018-03-24T19:51:27.761Z,24.90
2018-03-24T19:53:55.269Z,27.00
2018-03-24T19:56:22.757Z,29.73
2018-03-24T19:58:50.265Z,31.80
2018-03-24T20:01:18.517Z,29.03
2018-03-24T20:03:46.017Z,34.10
2018-03-24T20:06:14.293Z,29.63
2018-03-24T20:08:42.564Z,29.50
2018-03-24T20:11:10.849Z,27.20
2018-03-24T20:13:38.349Z,27.37
2018-03-24T20:16:05.857Z,28.00
2018-03-24T20:18:34.114Z,30.47
2018-03-24T20:21:01.604Z,46.33
2018-03-24T20:23:29.114Z,71.70
2018-03-24T20:25:56.608Z,62.17
2018-03-24T20:28:24.881Z,60.30
2018-03-24T20:30:53.133Z,52.43
2018-03-24T20:33:21.412Z,51.67
2018-03-24T20:35:49.665Z,52.10
2018-03-24T20:38:17.152Z,47.00
2018-03-24T20:40:44.666Z,45.03
2018-03-24T20:43:12.153Z,40.67
2018-03-24T20:45:39.666Z,39.07
2018-03-24T20:48:07.157Z,30.53
2018-03-24T20:50:34.669Z,37.03
2018-03-24T20:53:02.152Z,36.03
2018-03-24T20:55:29.645Z,31.13
2018-03-24T20:57:57.154Z,33.50
2018-03-24T21:00:24.657Z,39.07
2018-03-24T21:02:52.165Z,32.27
2018-03-24T21:05:19.649Z,32.40
2018-03-24T21:07:47.228Z,36.07
2018-03-24T21:10:14.676Z,35.27
2018-03-24T21:12:42.160Z,33.80
2018-03-24T21:15:11.185Z,32.80
2018-03-24T21:17:39.441Z,37.67
2018-03-24T21:20:06.948Z,29.23
2018-03-24T21:22:34.437Z,40.27
2018-03-24T21:25:01.932Z,38.53
2018-03-24T21:27:30.210Z,33.07
2018-03-24T21:29:57.705Z,31.50
2018-03-24T21:32:25.213Z,34.87
2018-03-24T21:34:53.468Z,34.80
2018-03-24T21:37:20.953Z,29.73
2018-03-24T21:39:49.230Z,36.80
2018-03-24T21:42:17.481Z,34.03
2018-03-24T21:44:44.985Z,33.93
2018-03-24T21:47:12.477Z,30.20
2018-03-24T21:49:39.988Z,31.07
2018-03-24T21:52:08.237Z,35.57
2018-03-24T21:54:36.501Z,31.90
2018-03-24T21:57:04.018Z,25.23
2018-03-24T21:59:31.505Z,31.40
2018-03-24T22:01:59.025Z,31.67
2018-03-24T22:04:26.508Z,27.30
2018-03-24T22:06:53.993Z,28.97
2018-03-24T22:09:21.509Z,27.23
2018-03-24T22:11:49.034Z,26.03
2018-03-24T22:14:16.526Z,26.23
2018-03-24T22:16:44.013Z,30.67
2018-03-24T22:19:11.504Z,27.07
2018-03-24T22:21:39.777Z,32.07
2018-03-24T22:24:07.368Z,31.23
2018-03-24T22:26:34.877Z,27.93
2018-03-24T22:29:02.373Z,29.67
2018-03-24T22:31:30.649Z,32.03
2018-03-24T22:33:58.904Z,35.80
2018-03-24T22:36:26.393Z,28.60
2018-03-24T22:38:53.900Z,33.13
2018-03-24T22:41:21.384Z,27.27
2018-03-24T22:43:49.657Z,36.33
2018-03-24T22:46:17.156Z,28.57
2018-03-24T22:48:44.703Z,33.17
2018-03-24T22:51:12.941Z,32.63
2018-03-24T22:53:40.444Z,32.20
2018-03-24T22:56:07.941Z,29.40
2018-03-24T22:58:35.428Z,29.13
2018-03-24T23:01:03.701Z,31.50
2018-03-24T23:03:31.185Z,27.03
2018-03-24T23:05:58.697Z,33.43
2018-03-24T23:08:26.180Z,29.00
2018-03-24T23:10:54.455Z,31.20
2018-03-24T23:13:22.710Z,30.67
2018-03-24T23:15:50.197Z,28.80
2018-03-24T23:18:18.465Z,29.80
2018-03-24T23:20:46.716Z,30.17
2018-03-24T23:23:14.223Z,29.67
2018-03-24T23:25:41.728Z,31.50
2018-03-24T23:28:09.238Z,29.40
2018-03-24T23:30:36.729Z,36.40
2018-03-24T23:33:04.237Z,29.43
2018-03-24T23:35:32.492Z,28.43
2018-03-24T23:38:00.749Z,35.70
2018-03-24T23:40:28.257Z,28.63
2018-03-24T23:42:56.508Z,28.03
2018-03-24T23:45:24.016Z,26.17
2018-03-24T23:47:51.509Z,26.07
2018-03-24T23:50:19.784Z,28.63
2018-03-24T23:52:47.265Z,27.67
2018-03-24T23:55:15.516Z,29.67
2018-03-24T23:57:43.024Z,26.63
